^^
Grace C. Lehan Memorial Weather Station Historical Data
Daily Summary for May 22, 2022 Units:  Metric    English   Both
Daily Weekly Monthly Yearly
  High: Low: Average:
Temperature: 34.2 °C 19.9 °C 26.6 °C
Dew Point: 24.5 °C 18 °C 20.8 °C
Humidity: 94% 46.1% 73%
Wind Speed: 16.6km/h 0km/h 0.5km/h
Wind Gust: 40.2km/h - -
Wind- - SW
Pressure: 1015.8 hPa 1010.4 hPa -
Precipitation: 5.59 mm    
 
 
Tabular Data for May 22, 2022
Time Temperature Dew Point Pressure Wind Wind Speed Wind Gust Humidity Rainfall Rate (Hourly) solar
00:00 22.5 °C 19.8 °C 1015.8 hPa Calm     85% 0 mm 0 W/m2
00:09 22.6 °C 19.9 °C 1015.8 hPa Calm     85% 0 mm 0 W/m2
00:14 22.6 °C 19.9 °C 1015.8 hPa Calm     85% 0 mm 0 W/m2
00:19 22.5 °C 19.9 °C 1015.8 hPa Calm     85% 0 mm 0 W/m2
00:24 22.5 °C 19.8 °C 1015.8 hPa Calm     85% 0 mm 0 W/m2
00:29 22.4 °C 19.8 °C 1015.8 hPa Calm     85% 0 mm 0 W/m2
00:34 22.4 °C 19.7 °C 1015.8 hPa Calm     85% 0 mm 0 W/m2
00:39 22.3 °C 19.7 °C 1015.5 hPa Calm     85% 0 mm 0 W/m2
00:44 22.3 °C 19.6 °C 1015.5 hPa Calm     85% 0 mm 0 W/m2
00:49 22.2 °C 19.7 °C 1015.5 hPa Calm     85.7% 0 mm 0 W/m2
00:54 22.2 °C 19.7 °C 1015.5 hPa Calm     86% 0 mm 0 W/m2
00:59 22.1 °C 19.6 °C 1015.1 hPa Calm     86% 0 mm 0 W/m2
01:04 22 °C 19.6 °C 1015.1 hPa Calm     86% 0 mm 0 W/m2
01:09 21.9 °C 19.5 °C 1015.1 hPa Calm     86% 0 mm 0 W/m2
01:14 21.8 °C 19.4 °C 1015.1 hPa Calm     86% 0 mm 0 W/m2
01:19 21.8 °C 19.3 °C 1014.8 hPa Calm     86% 0 mm 0 W/m2
01:24 21.7 °C 19.4 °C 1014.8 hPa Calm     87% 0 mm 0 W/m2
01:29 21.7 °C 19.4 °C 1014.8 hPa Calm     87% 0 mm 0 W/m2
01:34 21.6 °C 19.3 °C 1014.8 hPa Calm     87% 0 mm 0 W/m2
01:39 21.6 °C 19.2 °C 1014.8 hPa Calm     86.6% 0 mm 0 W/m2
01:44 21.5 °C 19.1 °C 1014.8 hPa Calm     86.1% 0 mm 0 W/m2
01:49 21.4 °C 19.2 °C 1014.8 hPa Calm     87% 0 mm 0 W/m2
01:54 21.4 °C 19.2 °C 1014.8 hPa Calm     87% 0 mm 0 W/m2
01:59 21.3 °C 19.1 °C 1014.4 hPa Calm     87% 0 mm 0 W/m2
02:04 21.3 °C 19.1 °C 1014.4 hPa Calm     87% 0 mm 0 W/m2
02:09 21.3 °C 19 °C 1014.4 hPa Calm     87% 0 mm 0 W/m2
02:14 21.2 °C 19 °C 1014.4 hPa Calm     87% 0 mm 0 W/m2
02:19 21.2 °C 18.9 °C 1014.4 hPa Calm     87% 0 mm 0 W/m2
02:24 21.1 °C 18.9 °C 1014.4 hPa Calm     87% 0 mm 0 W/m2
02:29 21.1 °C 18.8 °C 1014.4 hPa Calm     87% 0 mm 0 W/m2
02:34 21.1 °C 18.8 °C 1014.1 hPa Calm     87% 0 mm 0 W/m2
02:39 21 °C 18.7 °C 1014.4 hPa Calm     87% 0 mm 0 W/m2
02:44 20.9 °C 18.8 °C 1014.4 hPa Calm     87.5% 0 mm 0 W/m2
02:49 20.9 °C 18.8 °C 1014.4 hPa Calm     88% 0 mm 0 W/m2
02:54 20.8 °C 18.8 °C 1014.4 hPa Calm     88% 0 mm 0 W/m2
02:59 20.8 °C 18.8 °C 1014.4 hPa Calm     88% 0 mm 0 W/m2
03:04 20.8 °C 18.8 °C 1014.4 hPa Calm     88% 0 mm 0 W/m2
03:09 20.8 °C 18.7 °C 1014.4 hPa Calm     88% 0 mm 0 W/m2
03:14 20.8 °C 18.7 °C 1014.4 hPa Calm     88% 0 mm 0 W/m2
03:19 20.7 °C 18.7 °C 1014.4 hPa Calm     88% 0 mm 0 W/m2
03:24 20.7 °C 18.6 °C 1014.4 hPa Calm     88% 0 mm 0 W/m2
03:29 20.7 °C 18.6 °C 1014.4 hPa Calm     88% 0 mm 0 W/m2
03:34 20.6 °C 18.6 °C 1014.4 hPa Calm     88% 0 mm 0 W/m2
03:39 20.6 °C 18.5 °C 1014.1 hPa Calm     88% 0 mm 0 W/m2
03:44 20.5 °C 18.4 °C 1014.1 hPa Calm     88% 0 mm 0 W/m2
03:49 20.4 °C 18.4 °C 1014.1 hPa Calm     88% 0 mm 0 W/m2
03:54 20.4 °C 18.3 °C 1014.1 hPa Calm     88% 0 mm 0 W/m2
03:59 20.3 °C 18.3 °C 1014.1 hPa Calm     88% 0 mm 0 W/m2
04:00 20.3 °C 18.3 °C 1014.1 hPa Calm     88% 0 mm 0 W/m2
04:09 20.3 °C 18.4 °C 1014.1 hPa Calm     89% 0 mm 0 W/m2
04:14 20.3 °C 18.4 °C 1014.1 hPa Calm     89% 0 mm 0 W/m2
04:19 20.3 °C 18.4 °C 1014.1 hPa Calm     89% 0 mm 0 W/m2
04:24 20.3 °C 18.4 °C 1013.8 hPa Calm     89% 0 mm 0 W/m2
04:29 20.3 °C 18.4 °C 1013.8 hPa Calm     89% 0 mm 0 W/m2
04:34 20.3 °C 18.4 °C 1013.8 hPa Calm     89% 0 mm 0 W/m2
04:39 20.3 °C 18.4 °C 1013.4 hPa Calm     89% 0 mm 0 W/m2
04:44 20.2 °C 18.3 °C 1013.4 hPa Calm     89% 0 mm 0 W/m2
04:49 20.2 °C 18.3 °C 1013.4 hPa Calm     89% 0 mm 0 W/m2
04:54 20.2 °C 18.3 °C 1013.4 hPa Calm     89% 0 mm 0 W/m2
04:59 20.2 °C 18.3 °C 1013.4 hPa Calm     89% 0 mm 0 W/m2
05:04 20.2 °C 18.2 °C 1013.4 hPa Calm     88.3% 0 mm 0 W/m2
05:09 20.1 °C 18.2 °C 1013.4 hPa Calm     88.7% 0 mm 0 W/m2
05:14 20.1 °C 18.2 °C 1013.4 hPa Calm     89% 0 mm 0 W/m2
05:19 20.1 °C 18.2 °C 1013.4 hPa Calm     89% 0 mm 0 W/m2
05:24 20 °C 18.1 °C 1013.4 hPa Calm     89% 0 mm 0 W/m2
05:29 19.9 °C 18.1 °C 1013.8 hPa Calm     89% 0 mm 5 W/m2
05:34 19.9 °C 18.1 °C 1013.4 hPa Calm     89% 0 mm 9 W/m2
05:39 19.9 °C 18.1 °C 1013.8 hPa Calm     89% 0 mm 11 W/m2
05:44 19.9 °C 18.1 °C 1013.8 hPa Calm     89% 0 mm 14 W/m2
05:49 19.9 °C 18 °C 1013.8 hPa Calm     89% 0 mm 18 W/m2
05:54 19.9 °C 18.2 °C 1013.8 hPa Calm     89.9% 0 mm 23 W/m2
05:59 19.9 °C 18.2 °C 1013.8 hPa Calm     90% 0 mm 26 W/m2
06:04 19.9 °C 18.2 °C 1014.1 hPa Calm     90% 0 mm 30 W/m2
06:09 19.9 °C 18.2 °C 1014.1 hPa Calm     90% 0 mm 33 W/m2
06:14 19.9 °C 18.3 °C 1014.1 hPa Calm     90% 0 mm 39 W/m2
06:19 20 °C 18.3 °C 1014.4 hPa Calm     90% 0 mm 44 W/m2
06:24 20.1 °C 18.4 °C 1014.4 hPa Calm     90% 0 mm 53 W/m2
06:29 20.2 °C 18.5 °C 1014.4 hPa Calm   1.6 km/h 90% 0 mm 109 W/m2
06:34 20.3 °C 18.7 °C 1014.4 hPa Calm   1.6 km/h 90% 0 mm 137 W/m2
06:39 20.6 °C 18.9 °C 1014.4 hPa Calm     90% 0 mm 158 W/m2
06:44 20.8 °C 19 °C 1014.4 hPa Calm     89.2% 0 mm 179 W/m2
06:49 21.2 °C 19.2 °C 1014.4 hPa Calm     88.4% 0 mm 199 W/m2
06:54 21.5 °C 19.3 °C 1014.4 hPa Calm     87.3% 0 mm 216 W/m2
06:59 21.9 °C 19.7 °C 1014.4 hPa Calm     86.9% 0 mm 236 W/m2
07:04 22.4 °C 19.7 °C 1014.4 hPa Calm     85% 0 mm 255 W/m2
07:09 22.8 °C 19.9 °C 1014.4 hPa Calm     84% 0 mm 271 W/m2
07:14 23.2 °C 20.2 °C 1014.4 hPa Calm     83% 0 mm 299 W/m2
07:19 23.6 °C 20.2 °C 1014.4 hPa Calm     81% 0 mm 309 W/m2
07:24 23.9 °C 20.2 °C 1014.4 hPa Calm     79.8% 0 mm 309 W/m2
07:29 24.2 °C 20.3 °C 1014.4 hPa Calm     79% 0 mm 308 W/m2
07:34 24.4 °C 20.6 °C 1014.4 hPa Calm     78.8% 0 mm 339 W/m2
07:39 24.8 °C 20.7 °C 1014.4 hPa Calm     78% 0 mm 362 W/m2
07:44 25.2 °C 20.8 °C 1014.4 hPa Calm     76.7% 0 mm 374 W/m2
07:49 25.6 °C 21 °C 1014.4 hPa Calm     75.6% 0 mm 366 W/m2
07:54 25.9 °C 21 °C 1014.4 hPa Calm     74.4% 0 mm 366 W/m2
07:59 26.2 °C 21.2 °C 1014.4 hPa Calm     74% 0 mm 396 W/m2
08:00 26.3 °C 21.3 °C 1014.4 hPa Calm     74% 0 mm 392 W/m2
08:09 26.8 °C 21.7 °C 1014.4 hPa Calm     73.6% 0 mm 431 W/m2
08:14 27.2 °C 21.8 °C 1014.4 hPa Calm     72.7% 0 mm 448 W/m2
08:19 27.6 °C 21.9 °C 1014.4 hPa Calm     71.4% 0 mm 461 W/m2
08:24 27.9 °C 21.7 °C 1014.4 hPa Calm     69.2% 0 mm 468 W/m2
08:29 28.1 °C 21.9 °C 1014.4 hPa Calm     69% 0 mm 496 W/m2
08:34 28.3 °C 22.1 °C 1014.4 hPa Calm     69.2% 0 mm 540 W/m2
08:39 28.4 °C 22 °C 1014.4 hPa Calm     68.1% 0 mm 608 W/m2
08:44 28.6 °C 22 °C 1014.4 hPa Calm     67.5% 0 mm 613 W/m2
08:49 28.7 °C 22.1 °C 1014.4 hPa Calm     67.5% 0 mm 596 W/m2
08:54 28.8 °C 22.1 °C 1014.1 hPa Calm     67% 0 mm 594 W/m2
08:59 28.9 °C 22.4 °C 1014.1 hPa Calm     68.1% 0 mm 580 W/m2
09:04 29.1 °C 22.6 °C 1014.1 hPa Calm     68.4% 0 mm 603 W/m2
09:09 29.1 °C 22.3 °C 1014.1 hPa Calm     66.8% 0 mm 613 W/m2
09:14 29.3 °C 22.5 °C 1014.1 hPa Calm     66.8% 0 mm 628 W/m2
09:19 29.6 °C 22.8 °C 1014.1 hPa Calm     67% 0 mm 654 W/m2
09:24 29.9 °C 23.1 °C 1014.1 hPa Calm     66.9% 0 mm 726 W/m2
09:29 30.2 °C 23.1 °C 1014.1 hPa Calm   3.2 km/h 65.9% 0 mm 735 W/m2
09:34 30.5 °C 22.8 °C 1014.1 hPa Calm   3.2 km/h 63.6% 0 mm 715 W/m2
09:39 30.6 °C 23.2 °C 1014.1 hPa SW 1 km/h 8 km/h 65% 0 mm 708 W/m2
09:44 30.7 °C 23.3 °C 1014.4 hPa SW 0.8 km/h 8 km/h 64.6% 0 mm 779 W/m2
09:49 30.9 °C 23.1 °C 1014.1 hPa SW 0.2 km/h 8 km/h 63.1% 0 mm 779 W/m2
09:54 31.1 °C 23.3 °C 1014.1 hPa Calm   8 km/h 63.2% 0 mm 742 W/m2
09:59 31.3 °C 23.4 °C 1014.1 hPa Calm   8 km/h 63% 0 mm 824 W/m2
10:04 31.6 °C 23.4 °C 1014.1 hPa Calm   8 km/h 62.2% 0 mm 902 W/m2
10:09 31.8 °C 23.7 °C 1014.1 hPa SW 0.3 km/h 4.8 km/h 62.4% 0 mm 823 W/m2
10:14 32 °C 23.7 °C 1014.1 hPa SW 0.5 km/h 6.4 km/h 61.8% 0 mm 969 W/m2
10:19 32.1 °C 23.7 °C 1014.1 hPa Calm   6.4 km/h 61.3% 0 mm 823 W/m2
10:24 32.2 °C 24.1 °C 1014.1 hPa WSW 0.6 km/h 8 km/h 62.1% 0 mm 786 W/m2
10:29 32 °C 23.1 °C 1014.1 hPa WSW 0.2 km/h 8 km/h 59.1% 0 mm 585 W/m2
10:34 31.6 °C 22.7 °C 1014.1 hPa Calm   8 km/h 59.3% 0 mm 599 W/m2
10:39 31.3 °C 23.1 °C 1014.1 hPa WSW 0.2 km/h 3.2 km/h 61.6% 0 mm 441 W/m2
10:44 31.2 °C 23.1 °C 1014.1 hPa Calm   4.8 km/h 62.1% 0 mm 508 W/m2
10:49 31.2 °C 23.3 °C 1013.8 hPa WSW 0.2 km/h 4.8 km/h 63.1% 0 mm 429 W/m2
10:54 31.1 °C 23.2 °C 1013.8 hPa Calm   4.8 km/h 63.1% 0 mm 547 W/m2
10:59 30.9 °C 23.4 °C 1013.8 hPa SW 0.2 km/h 4.8 km/h 64% 0 mm 557 W/m2
11:04 30.8 °C 23.2 °C 1013.8 hPa Calm   4.8 km/h 63.9% 0 mm 954 W/m2
11:09 30.9 °C 24.1 °C 1013.4 hPa SW 0.2 km/h 3.2 km/h 67% 0 mm 1005 W/m2
11:14 31.3 °C 23.9 °C 1013.4 hPa Calm   3.2 km/h 65.1% 0 mm 1005 W/m2
11:19 31.6 °C 23.9 °C 1013.4 hPa Calm   3.2 km/h 63.9% 0 mm 700 W/m2
11:24 31.9 °C 24.4 °C 1013.4 hPa Calm   3.2 km/h 64.9% 0 mm 1088 W/m2
11:29 32.3 °C 24.5 °C 1013.4 hPa SW 0.3 km/h 8 km/h 63.6% 0 mm 1088 W/m2
11:34 32.7 °C 24.4 °C 1013.4 hPa SW 1 km/h 9.7 km/h 61.8% 0 mm 963 W/m2
11:39 32.9 °C 23.9 °C 1013.4 hPa SW 1.4 km/h 9.7 km/h 59.4% 0 mm 953 W/m2
11:44 33 °C 23.6 °C 1013.4 hPa WSW 1.3 km/h 12.9 km/h 57.9% 0 mm 953 W/m2
11:49 33.2 °C 23.9 °C 1013.4 hPa West 0.3 km/h 12.9 km/h 58.5% 0 mm 693 W/m2
11:54 33.4 °C 23.7 °C 1013.8 hPa WSW 2.1 km/h 12.9 km/h 56.7% 0 mm 570 W/m2
11:59 33.4 °C 23 °C 1013.8 hPa SW 0.6 km/h 12.9 km/h 54.6% 0 mm 272 W/m2
12:00 33.3 °C 23 °C 1013.4 hPa Calm   12.9 km/h 55% 0 mm 248 W/m2
12:09 32.9 °C 23.2 °C 1013.8 hPa Calm     56.7% 0 mm 316 W/m2
12:14 32.7 °C 23.2 °C 1013.8 hPa SW 0.5 km/h 6.4 km/h 57.5% 0 mm 299 W/m2
12:19 32.5 °C 23.1 °C 1013.8 hPa SW 1 km/h 6.4 km/h 57.5% 0 mm 221 W/m2
12:24 32.3 °C 22.3 °C 1013.8 hPa WSW 0.6 km/h 8 km/h 55.7% 0 mm 230 W/m2
12:29 32 °C 22.3 °C 1013.8 hPa West 2.4 km/h 14.5 km/h 56.6% 0 mm 213 W/m2
12:34 31.8 °C 22.4 °C 1013.8 hPa West 0.3 km/h 14.5 km/h 57.8% 0 mm 186 W/m2
12:39 31.5 °C 22.4 °C 1013.8 hPa SW 0.6 km/h 9.7 km/h 58.8% 0 mm 193 W/m2
12:44 31.3 °C 22.3 °C 1013.8 hPa WSW 1.1 km/h 9.7 km/h 59% 0 mm 209 W/m2
12:49 31.1 °C 22.5 °C 1013.8 hPa Calm   9.7 km/h 60.3% 0 mm 295 W/m2
12:54 31.1 °C 22.8 °C 1013.4 hPa Calm   9.7 km/h 61.5% 0 mm 345 W/m2
12:59 31.1 °C 23.2 °C 1013.4 hPa Calm   9.7 km/h 62.9% 0 mm 350 W/m2
13:04 31.1 °C 23.2 °C 1013.4 hPa SW 0.2 km/h 9.7 km/h 62.9% 0 mm 346 W/m2
13:09 31.2 °C 22.9 °C 1013.4 hPa WSW 0.3 km/h 4.8 km/h 61.4% 0 mm 396 W/m2
13:14 31.3 °C 22.8 °C 1013.1 hPa WSW 0.8 km/h 4.8 km/h 60.7% 0 mm 494 W/m2
13:19 31.4 °C 22.8 °C 1013.1 hPa West 1.4 km/h 9.7 km/h 60.4% 0 mm 1269 W/m2
13:24 31.7 °C 23.1 °C 1012.8 hPa SSW 0.3 km/h 9.7 km/h 60.3% 0 mm 1269 W/m2
13:29 31.9 °C 23.2 °C 1012.8 hPa SW 1.9 km/h 14.5 km/h 60% 0 mm 432 W/m2
13:34 32.1 °C 22.9 °C 1012.8 hPa Calm   14.5 km/h 58.5% 0 mm 323 W/m2
13:39 31.9 °C 22.6 °C 1012.8 hPa Calm   1.6 km/h 57.6% 0 mm 318 W/m2
13:44 31.8 °C 22.4 °C 1012.8 hPa Calm   1.6 km/h 57.7% 0 mm 323 W/m2
13:49 31.6 °C 22.1 °C 1012.4 hPa WSW 0.2 km/h 4.8 km/h 57.2% 0 mm 457 W/m2
13:54 31.6 °C 22.7 °C 1012.4 hPa Calm   4.8 km/h 59.2% 0 mm 552 W/m2
13:59 31.7 °C 22.7 °C 1012.4 hPa WSW 0.3 km/h 4.8 km/h 58.9% 0 mm 490 W/m2
14:04 31.8 °C 22.6 °C 1012.4 hPa Calm   4.8 km/h 58% 0 mm 540 W/m2
14:09 32 °C 22.7 °C 1012.1 hPa Calm   1.6 km/h 57.9% 0 mm 564 W/m2
14:14 32.1 °C 22.7 °C 1012.1 hPa WSW 0.3 km/h 4.8 km/h 57.5% 0 mm 670 W/m2
14:19 32.3 °C 22.8 °C 1012.1 hPa Calm   4.8 km/h 57.4% 0 mm 740 W/m2
14:24 32.4 °C 22.9 °C 1012.1 hPa WSW 0.2 km/h 4.8 km/h 57.3% 0 mm 940 W/m2
14:29 32.7 °C 22.7 °C 1012.1 hPa WSW 0.6 km/h 4.8 km/h 55.8% 0 mm 940 W/m2
14:34 32.9 °C 22.8 °C 1012.1 hPa WSW 0.2 km/h 4.8 km/h 55.5% 0 mm 868 W/m2
14:39 33 °C 22.7 °C 1011.7 hPa WSW 0.3 km/h 4.8 km/h 54.7% 0 mm 863 W/m2
14:44 33.2 °C 22.8 °C 1011.7 hPa SSW 0.3 km/h 4.8 km/h 54.5% 0 mm 849 W/m2
14:49 33.2 °C 22.2 °C 1011.7 hPa Calm   4.8 km/h 52.5% 0 mm 846 W/m2
14:54 33.3 °C 22.6 °C 1011.7 hPa Calm   4.8 km/h 53.6% 0 mm 830 W/m2
14:59 33.6 °C 22.8 °C 1011.7 hPa South 0.3 km/h 4.8 km/h 53.3% 0 mm 810 W/m2
15:04 33.7 °C 22.6 °C 1011.4 hPa SW 1.1 km/h 9.7 km/h 52.2% 0 mm 800 W/m2
15:09 33.8 °C 22.4 °C 1011.4 hPa SW 0.3 km/h 9.7 km/h 51.4% 0 mm 796 W/m2
15:14 33.9 °C 22.2 °C 1011.4 hPa SW 1.6 km/h 9.7 km/h 50.5% 0 mm 786 W/m2
15:19 34.1 °C 22 °C 1011.4 hPa WSW 0.5 km/h 9.7 km/h 49.6% 0 mm 773 W/m2
15:24 34.1 °C 21.8 °C 1011.4 hPa Calm   9.7 km/h 48.9% 0 mm 763 W/m2
15:29 34.1 °C 22.1 °C 1011.1 hPa Calm   9.7 km/h 49.7% 0 mm 747 W/m2
15:34 34.1 °C 22.2 °C 1011.1 hPa Calm   9.7 km/h 50% 0 mm 733 W/m2
15:39 34.1 °C 22.2 °C 1011.1 hPa SW 1 km/h 9.7 km/h 50% 0 mm 726 W/m2
15:44 34.1 °C 21.9 °C 1011.1 hPa WSW 0.6 km/h 9.7 km/h 49.1% 0 mm 717 W/m2
15:49 34.1 °C 22.3 °C 1011.1 hPa SW 0.6 km/h 9.7 km/h 50.3% 0 mm 701 W/m2
15:54 34.2 °C 21.5 °C 1010.7 hPa SW 0.3 km/h 9.7 km/h 47.6% 0 mm 684 W/m2
15:59 34.1 °C 21.2 °C 1010.7 hPa SSW 0.8 km/h 9.7 km/h 47% 0 mm 675 W/m2
16:00 34.1 °C 21.5 °C 1010.7 hPa Calm   9.7 km/h 48% 0 mm 668 W/m2
16:09 33.9 °C 21.2 °C 1010.7 hPa SW 0.8 km/h 8 km/h 47.6% 0 mm 547 W/m2
16:14 33.8 °C 20.6 °C 1010.7 hPa SW 1 km/h 8 km/h 46.1% 0 mm 95 W/m2
16:19 33.7 °C 20.7 °C 1010.7 hPa SW 0.6 km/h 8 km/h 46.6% 0 mm 95 W/m2
16:24 33.7 °C 20.6 °C 1010.4 hPa SW 1 km/h 8 km/h 46.5% 0 mm 91 W/m2
16:29 33.7 °C 20.5 °C 1010.4 hPa SW 3.5 km/h 14.5 km/h 46.2% 0 mm 84 W/m2
16:34 33.6 °C 20.4 °C 1010.4 hPa SW 2.1 km/h 14.5 km/h 46.1% 0 mm 93 W/m2
16:39 33.5 °C 20.5 °C 1010.4 hPa WSW 2.7 km/h 11.3 km/h 46.5% 0 mm 95 W/m2
16:44 33.4 °C 20.8 °C 1010.4 hPa WSW 1.1 km/h 11.3 km/h 47.5% 0 mm 91 W/m2
16:49 33.4 °C 20.8 °C 1010.4 hPa WSW 1 km/h 11.3 km/h 47.6% 0 mm 113 W/m2
16:54 33.3 °C 20.8 °C 1010.4 hPa Calm   11.3 km/h 48% 0 mm 135 W/m2
16:59 33.3 °C 21.1 °C 1010.4 hPa SW 0.6 km/h 11.3 km/h 48.8% 0 mm 135 W/m2
17:04 33.2 °C 21.2 °C 1010.4 hPa SW 0.5 km/h 11.3 km/h 49.3% 0 mm 149 W/m2
17:09 32.9 °C 21.6 °C 1010.4 hPa SW 0.5 km/h 6.4 km/h 51.4% 0 mm 149 W/m2
17:14 32.6 °C 21.7 °C 1010.4 hPa South 1.3 km/h 6.4 km/h 52.6% 0 mm 105 W/m2
17:19 32.2 °C 21.5 °C 1010.4 hPa South 0.3 km/h 6.4 km/h 53.2% 0 mm 128 W/m2
17:24 32.1 °C 21.7 °C 1010.4 hPa South 1.9 km/h 6.4 km/h 54.3% 0 mm 116 W/m2
17:29 31.8 °C 21.3 °C 1010.4 hPa South 2.3 km/h 8 km/h 54% 0 mm 104 W/m2
17:34 31.6 °C 21 °C 1010.4 hPa South 3.1 km/h 9.7 km/h 53.6% 0 mm 93 W/m2
17:39 31.4 °C 21.1 °C 1010.4 hPa South 0.8 km/h 9.7 km/h 54.5% 0 mm 76 W/m2
17:44 31.3 °C 21.2 °C 1010.4 hPa South 2.7 km/h 9.7 km/h 55% 0 mm 69 W/m2
17:49 31.1 °C 20.8 °C 1010.4 hPa South 2.1 km/h 11.3 km/h 54.4% 0 mm 67 W/m2
17:54 31 °C 21.1 °C 1010.4 hPa SW 1.1 km/h 11.3 km/h 55.6% 0 mm 65 W/m2
17:59 30.9 °C 20.9 °C 1010.4 hPa SSW 0.8 km/h 11.3 km/h 55.4% 0 mm 63 W/m2
18:04 30.8 °C 21 °C 1010.4 hPa South 1.1 km/h 11.3 km/h 55.8% 0 mm 60 W/m2
18:09 30.8 °C 21.1 °C 1010.4 hPa South 1.3 km/h 9.7 km/h 56.3% 0 mm 56 W/m2
18:14 30.7 °C 21.4 °C 1010.4 hPa SW 2.1 km/h 9.7 km/h 57.8% 0 mm 56 W/m2
18:19 30.6 °C 21.7 °C 1010.4 hPa SSW 1.3 km/h 9.7 km/h 58.9% 0 mm 56 W/m2
18:24 30.6 °C 21.7 °C 1010.4 hPa SSW 0.8 km/h 9.7 km/h 59.3% 0 mm 53 W/m2
18:29 30.5 °C 22 °C 1010.7 hPa SSW 1 km/h 9.7 km/h 60.5% 0 mm 51 W/m2
18:34 30.4 °C 22.1 °C 1010.7 hPa South 0.2 km/h 9.7 km/h 61.3% 0 mm 49 W/m2
18:39 30.3 °C 22.2 °C 1010.7 hPa South 1.9 km/h 14.5 km/h 62% 0 mm 47 W/m2
18:44 30.2 °C 22.2 °C 1010.4 hPa SSW 1.6 km/h 14.5 km/h 62.3% 0 mm 44 W/m2
18:49 30 °C 22.2 °C 1010.4 hPa South 1 km/h 14.5 km/h 62.9% 0 mm 42 W/m2
18:54 29.8 °C 22.2 °C 1010.7 hPa South 1.6 km/h 14.5 km/h 63.7% 0 mm 40 W/m2
18:59 29.7 °C 22.2 °C 1010.7 hPa South 0.5 km/h 14.5 km/h 64.2% 0 mm 33 W/m2
19:04 29.6 °C 22.2 °C 1010.7 hPa South 0.3 km/h 14.5 km/h 64.8% 0 mm 35 W/m2
19:09 29.4 °C 22.2 °C 1010.7 hPa South 0.2 km/h 8 km/h 65.2% 0 mm 33 W/m2
19:14 29.3 °C 22.2 °C 1010.7 hPa South 0.3 km/h 8 km/h 65.6% 0 mm 21 W/m2
19:19 29.1 °C 22.1 °C 1010.7 hPa South 0.8 km/h 8 km/h 66% 0 mm 14 W/m2
19:24 28.9 °C 21.9 °C 1011.1 hPa South 0.6 km/h 8 km/h 66% 0 mm 11 W/m2
19:29 28.8 °C 21.8 °C 1011.1 hPa South 0.2 km/h 8 km/h 66% 0 mm 9 W/m2
19:34 28.6 °C 21.6 °C 1011.4 hPa South 0.6 km/h 8 km/h 65.7% 0 mm 7 W/m2
19:39 28.3 °C 21.4 °C 1011.4 hPa SSW 0.5 km/h 8 km/h 66% 0 mm 7 W/m2
19:44 28.2 °C 21.2 °C 1011.4 hPa SSW 0.2 km/h 8 km/h 66% 0 mm 7 W/m2
19:49 28 °C 21.2 °C 1011.4 hPa Calm   8 km/h 66.4% 0 mm 5 W/m2
19:54 27.8 °C 21.2 °C 1011.4 hPa Calm   8 km/h 67% 0 mm 0 W/m2
19:59 27.7 °C 21.1 °C 1011.7 hPa South 0.2 km/h 8 km/h 67.4% 0 mm 0 W/m2
20:00 27.6 °C 21.2 °C 1011.7 hPa Calm   8 km/h 68% 0 mm 0 W/m2
20:09 27.4 °C 21.2 °C 1012.8 hPa WNW 2.9 km/h 8 km/h 68.9% 0 mm 0 W/m2
20:14 27.2 °C 21.1 °C 1013.1 hPa WNW 3.2 km/h 9.7 km/h 69% 0 mm 0 W/m2
20:19 27.1 °C 20.3 °C 1013.4 hPa WNW 11.4 km/h 30.6 km/h 66.2% 0 mm 0 W/m2
20:24 26.9 °C 19.4 °C 1013.8 hPa WNW 12.6 km/h 30.6 km/h 63.3% 0 mm 0 W/m2
20:29 26.8 °C 19.6 °C 1014.4 hPa WNW 9.2 km/h 30.6 km/h 64.9% 0 mm 0 W/m2
20:34 26.3 °C 20.1 °C 1014.4 hPa WNW 16.6 km/h 40.2 km/h 68.8% 2.29 mm 0 W/m2
20:39 25.2 °C 20.2 °C 1014.4 hPa West 4.3 km/h 40.2 km/h 74% 2.79 mm 0 W/m2
20:44 24.2 °C 20.2 °C 1014.4 hPa WNW 5.3 km/h 40.2 km/h 78.7% 3.3 mm 0 W/m2
20:49 23.4 °C 20.1 °C 1014.1 hPa WNW 0.6 km/h 40.2 km/h 81.8% 3.3 mm 0 W/m2
20:54 22.9 °C 20.2 °C 1014.4 hPa Calm   40.2 km/h 84.3% 3.3 mm 0 W/m2
20:59 22.7 °C 20.1 °C 1014.4 hPa Calm   40.2 km/h 85.6% 3.3 mm 0 W/m2
21:04 22.4 °C 20.2 °C 1014.8 hPa Calm   40.2 km/h 86.9% 3.3 mm 0 W/m2
21:09 22.2 °C 20.1 °C 1014.8 hPa Calm     87.8% 3.56 mm 0 W/m2
21:14 22 °C 20 °C 1015.1 hPa Calm     88.4% 3.81 mm 0 W/m2
21:19 21.9 °C 20 °C 1015.1 hPa NNW 1.3 km/h 6.4 km/h 89.2% 4.32 mm 0 W/m2
21:24 21.8 °C 20.1 °C 1015.1 hPa NNW 1 km/h 6.4 km/h 90% 4.57 mm 0 W/m2
21:29 21.7 °C 20 °C 1015.1 hPa NNW 0.2 km/h 6.4 km/h 90% 4.83 mm 0 W/m2
21:34 21.7 °C 20.1 °C 1015.5 hPa NNW 0.2 km/h 6.4 km/h 90.8% 5.08 mm 0 W/m2
21:39 21.6 °C 20.1 °C 1015.1 hPa Calm   4.8 km/h 91% 5.33 mm 0 W/m2
21:44 21.5 °C 20 °C 1014.8 hPa Calm   4.8 km/h 91% 5.59 mm 0 W/m2
21:49 21.5 °C 20.1 °C 1014.8 hPa NNW 0.2 km/h 4.8 km/h 91.9% 5.59 mm 0 W/m2
21:54 21.4 °C 20.1 °C 1014.8 hPa Calm   4.8 km/h 92% 5.59 mm 0 W/m2
21:59 21.3 °C 20 °C 1014.8 hPa Calm   4.8 km/h 92% 5.59 mm 0 W/m2
22:04 21.3 °C 20 °C 1015.1 hPa Calm   4.8 km/h 92% 5.59 mm 0 W/m2
22:09 21.3 °C 19.9 °C 1014.8 hPa Calm     92% 2.29 mm 0 W/m2
22:14 21.3 °C 20.1 °C 1014.4 hPa Calm     92.7% 2.29 mm 0 W/m2
22:19 21.3 °C 20.1 °C 1014.4 hPa Calm     93% 2.29 mm 0 W/m2
22:24 21.3 °C 20.1 °C 1014.4 hPa Calm     93% 2.29 mm 0 W/m2
22:29 21.3 °C 20.1 °C 1014.1 hPa Calm     93% 2.29 mm 0 W/m2
22:34 21.2 °C 20.1 °C 1014.1 hPa Calm     93% 2.29 mm 0 W/m2
22:39 21.2 °C 20 °C 1014.4 hPa Calm     93% 0.76 mm 0 W/m2
22:44 21.2 °C 20 °C 1014.4 hPa Calm     93% 0.76 mm 0 W/m2
22:49 21.1 °C 19.9 °C 1014.4 hPa Calm     93% 0.76 mm 0 W/m2
22:54 21.1 °C 19.9 °C 1014.4 hPa Calm     93% 0.76 mm 0 W/m2
22:59 21 °C 19.8 °C 1014.4 hPa Calm     93% 0.76 mm 0 W/m2
23:04 20.9 °C 19.8 °C 1014.8 hPa Calm     93% 0.76 mm 0 W/m2
23:09 20.9 °C 19.7 °C 1014.8 hPa Calm     93% 0 mm 0 W/m2
23:14 20.8 °C 19.7 °C 1014.8 hPa Calm     93% 0 mm 0 W/m2
23:19 20.8 °C 19.8 °C 1014.8 hPa Calm     93.8% 0 mm 0 W/m2
23:24 20.8 °C 19.7 °C 1014.8 hPa Calm     93.8% 0 mm 0 W/m2
23:29 20.7 °C 19.5 °C 1014.8 hPa Calm     93% 0 mm 0 W/m2
23:34 20.7 °C 19.5 °C 1014.8 hPa Calm     93.3% 0 mm 0 W/m2
23:39 20.6 °C 19.6 °C 1014.8 hPa Calm     94% 0 mm 0 W/m2
23:44 20.6 °C 19.6 °C 1014.8 hPa Calm     94% 0 mm 0 W/m2
23:49 20.5 °C 19.5 °C 1015.1 hPa NW 2.3 km/h 17.7 km/h 94% 0 mm 0 W/m2
23:54 20.3 °C 19.2 °C 1015.1 hPa WNW 4.3 km/h 17.7 km/h 93.2% 0 mm 0 W/m2
23:59 19.9 °C 18.7 °C 1015.1 hPa WNW 2.9 km/h 17.7 km/h 92.6% 0 mm 0 W/m2
Hartford County Weather
Compliments of Weather Underground - 2 mb